sensor_id;sensor_type;location;lat;lon;timestamp;temperature;humidity
51595;DHT22;37677;53.254;6.594;2022-10-26T00:01:10;11.60;14.50
51595;DHT22;37677;53.254;6.594;2022-10-26T00:03:36;11.60;15.60
51595;DHT22;37677;53.254;6.594;2022-10-26T00:06:16;11.50;15.40
51595;DHT22;37677;53.254;6.594;2022-10-26T00:08:43;11.50;16.10
51595;DHT22;37677;53.254;6.594;2022-10-26T00:11:10;11.50;15.80
51595;DHT22;37677;53.254;6.594;2022-10-26T00:13:36;11.50;15.70
51595;DHT22;37677;53.254;6.594;2022-10-26T00:16:08;11.50;15.50
51595;DHT22;37677;53.254;6.594;2022-10-26T00:18:33;11.50;15.40
51595;DHT22;37677;53.254;6.594;2022-10-26T00:21:04;11.50;15.50
51595;DHT22;37677;53.254;6.594;2022-10-26T00:23:30;11.50;15.50
51595;DHT22;37677;53.254;6.594;2022-10-26T00:25:56;11.50;15.70
51595;DHT22;37677;53.254;6.594;2022-10-26T00:28:22;11.40;15.80
51595;DHT22;37677;53.254;6.594;2022-10-26T00:30:48;11.50;15.80
51595;DHT22;37677;53.254;6.594;2022-10-26T00:33:13;11.40;15.80
51595;DHT22;37677;53.254;6.594;2022-10-26T00:35:39;11.40;15.80
51595;DHT22;37677;53.254;6.594;2022-10-26T00:38:05;11.40;16.00
51595;DHT22;37677;53.254;6.594;2022-10-26T00:40:30;11.40;16.20
51595;DHT22;37677;53.254;6.594;2022-10-26T00:42:56;11.40;15.70
51595;DHT22;37677;53.254;6.594;2022-10-26T00:45:25;11.40;15.50
51595;DHT22;37677;53.254;6.594;2022-10-26T00:48:18;11.30;15.50
51595;DHT22;37677;53.254;6.594;2022-10-26T00:50:46;11.30;16.10
51595;DHT22;37677;53.254;6.594;2022-10-26T00:53:12;11.30;16.00
51595;DHT22;37677;53.254;6.594;2022-10-26T00:55:43;11.30;16.30
51595;DHT22;37677;53.254;6.594;2022-10-26T00:58:10;11.40;16.20
51595;DHT22;37677;53.254;6.594;2022-10-26T01:00:36;11.20;16.10
51595;DHT22;37677;53.254;6.594;2022-10-26T01:03:05;11.20;15.70
51595;DHT22;37677;53.254;6.594;2022-10-26T01:05:31;11.20;15.50
51595;DHT22;37677;53.254;6.594;2022-10-26T01:07:57;11.20;16.00
51595;DHT22;37677;53.254;6.594;2022-10-26T01:10:24;11.10;16.20
51595;DHT22;37677;53.254;6.594;2022-10-26T01:12:52;11.10;16.80
51595;DHT22;37677;53.254;6.594;2022-10-26T01:15:20;11.00;17.00
51595;DHT22;37677;53.254;6.594;2022-10-26T01:17:55;11.00;17.10
51595;DHT22;37677;53.254;6.594;2022-10-26T01:23:19;11.00;17.60
51595;DHT22;37677;53.254;6.594;2022-10-26T01:26:27;11.00;17.30
51595;DHT22;37677;53.254;6.594;2022-10-26T01:31:43;10.90;17.10
51595;DHT22;37677;53.254;6.594;2022-10-26T01:34:14;10.90;17.00
51595;DHT22;37677;53.254;6.594;2022-10-26T01:36:52;11.00;16.90
51595;DHT22;37677;53.254;6.594;2022-10-26T01:39:27;10.80;17.20
51595;DHT22;37677;53.254;6.594;2022-10-26T01:41:59;10.80;17.20
51595;DHT22;37677;53.254;6.594;2022-10-26T01:44:38;11.30;18.00
51595;DHT22;37677;53.254;6.594;2022-10-26T01:47:09;10.70;17.80
51595;DHT22;37677;53.254;6.594;2022-10-26T01:49:39;10.80;17.90
51595;DHT22;37677;53.254;6.594;2022-10-26T01:52:05;10.70;17.50
51595;DHT22;37677;53.254;6.594;2022-10-26T01:54:34;10.70;18.00
51595;DHT22;37677;53.254;6.594;2022-10-26T01:57:04;10.70;18.50
51595;DHT22;37677;53.254;6.594;2022-10-26T02:07:50;10.60;18.80
51595;DHT22;37677;53.254;6.594;2022-10-26T02:10:29;10.50;19.60
51595;DHT22;37677;53.254;6.594;2022-10-26T02:19:04;10.40;19.70
51595;DHT22;37677;53.254;6.594;2022-10-26T02:21:45;10.40;20.10
51595;DHT22;37677;53.254;6.594;2022-10-26T02:24:14;10.40;20.50
51595;DHT22;37677;53.254;6.594;2022-10-26T02:26:42;10.80;20.40
51595;DHT22;37677;53.254;6.594;2022-10-26T02:29:12;10.30;20.40
51595;DHT22;37677;53.254;6.594;2022-10-26T02:31:40;10.30;19.90
51595;DHT22;37677;53.254;6.594;2022-10-26T02:34:09;10.40;20.30
51595;DHT22;37677;53.254;6.594;2022-10-26T02:36:39;10.20;20.10
51595;DHT22;37677;53.254;6.594;2022-10-26T02:39:07;10.20;20.70
51595;DHT22;37677;53.254;6.594;2022-10-26T02:41:34;10.50;20.60
51595;DHT22;37677;53.254;6.594;2022-10-26T02:44:28;10.20;20.50
51595;DHT22;37677;53.254;6.594;2022-10-26T02:46:54;8.90;20.90
51595;DHT22;37677;53.254;6.594;2022-10-26T02:49:21;10.20;21.50
51595;DHT22;37677;53.254;6.594;2022-10-26T02:52:12;10.20;21.30
51595;DHT22;37677;53.254;6.594;2022-10-26T02:54:58;10.10;21.00
51595;DHT22;37677;53.254;6.594;2022-10-26T02:57:29;10.10;21.10
51595;DHT22;37677;53.254;6.594;2022-10-26T02:59:58;10.60;20.90
51595;DHT22;37677;53.254;6.594;2022-10-26T03:02:24;10.00;20.80
51595;DHT22;37677;53.254;6.594;2022-10-26T03:04:51;10.00;21.00
51595;DHT22;37677;53.254;6.594;2022-10-26T03:07:24;10.00;21.40
51595;DHT22;37677;53.254;6.594;2022-10-26T03:09:50;10.00;21.80
51595;DHT22;37677;53.254;6.594;2022-10-26T03:12:16;10.00;21.80
51595;DHT22;37677;53.254;6.594;2022-10-26T03:14:41;10.00;21.70
51595;DHT22;37677;53.254;6.594;2022-10-26T03:17:07;10.00;22.20
51595;DHT22;37677;53.254;6.594;2022-10-26T03:19:33;9.90;22.70
51595;DHT22;37677;53.254;6.594;2022-10-26T03:21:58;10.30;21.80
51595;DHT22;37677;53.254;6.594;2022-10-26T03:24:24;9.90;21.70
51595;DHT22;37677;53.254;6.594;2022-10-26T03:26:50;9.90;21.60
51595;DHT22;37677;53.254;6.594;2022-10-26T03:29:15;9.90;21.60
51595;DHT22;37677;53.254;6.594;2022-10-26T03:31:41;9.90;21.30
51595;DHT22;37677;53.254;6.594;2022-10-26T03:34:06;9.90;21.30
51595;DHT22;37677;53.254;6.594;2022-10-26T03:36:32;9.90;21.50
51595;DHT22;37677;53.254;6.594;2022-10-26T03:38:58;10.00;21.20
51595;DHT22;37677;53.254;6.594;2022-10-26T03:41:24;9.90;20.90
51595;DHT22;37677;53.254;6.594;2022-10-26T03:43:49;9.90;20.70
51595;DHT22;37677;53.254;6.594;2022-10-26T03:46:15;9.90;21.10
51595;DHT22;37677;53.254;6.594;2022-10-26T03:48:41;10.40;22.20
51595;DHT22;37677;53.254;6.594;2022-10-26T03:51:06;10.70;22.20
51595;DHT22;37677;53.254;6.594;2022-10-26T03:53:32;9.90;21.10
51595;DHT22;37677;53.254;6.594;2022-10-26T03:55:57;9.90;21.40
51595;DHT22;37677;53.254;6.594;2022-10-26T03:58:23;9.90;22.00
51595;DHT22;37677;53.254;6.594;2022-10-26T04:00:49;9.90;22.30
51595;DHT22;37677;53.254;6.594;2022-10-26T04:03:15;9.90;22.30
51595;DHT22;37677;53.254;6.594;2022-10-26T04:05:41;9.90;22.50
51595;DHT22;37677;53.254;6.594;2022-10-26T04:08:07;10.50;22.30
51595;DHT22;37677;53.254;6.594;2022-10-26T04:10:33;9.90;21.40
51595;DHT22;37677;53.254;6.594;2022-10-26T04:12:59;10.30;21.20
51595;DHT22;37677;53.254;6.594;2022-10-26T04:15:26;10.00;21.60
51595;DHT22;37677;53.254;6.594;2022-10-26T04:17:56;10.40;21.60
51595;DHT22;37677;53.254;6.594;2022-10-26T04:20:22;9.30;21.10
51595;DHT22;37677;53.254;6.594;2022-10-26T04:22:59;10.10;21.50
51595;DHT22;37677;53.254;6.594;2022-10-26T04:25:25;10.00;21.80
51595;DHT22;37677;53.254;6.594;2022-10-26T04:27:51;10.00;21.60
51595;DHT22;37677;53.254;6.594;2022-10-26T04:30:17;10.00;21.90
51595;DHT22;37677;53.254;6.594;2022-10-26T04:32:43;10.00;21.60
51595;DHT22;37677;53.254;6.594;2022-10-26T04:35:09;10.00;22.50
51595;DHT22;37677;53.254;6.594;2022-10-26T04:37:34;10.00;22.20
51595;DHT22;37677;53.254;6.594;2022-10-26T04:40:00;10.00;22.40
51595;DHT22;37677;53.254;6.594;2022-10-26T04:42:26;10.00;21.90
51595;DHT22;37677;53.254;6.594;2022-10-26T04:44:51;10.60;22.20
51595;DHT22;37677;53.254;6.594;2022-10-26T04:47:17;11.10;22.40
51595;DHT22;37677;53.254;6.594;2022-10-26T04:49:43;9.90;21.90
51595;DHT22;37677;53.254;6.594;2022-10-26T04:52:08;10.00;22.50
51595;DHT22;37677;53.254;6.594;2022-10-26T04:54:34;10.00;22.80
51595;DHT22;37677;53.254;6.594;2022-10-26T04:56:59;10.90;23.20
51595;DHT22;37677;53.254;6.594;2022-10-26T04:59:25;10.00;23.10
51595;DHT22;37677;53.254;6.594;2022-10-26T05:01:51;10.00;23.70
51595;DHT22;37677;53.254;6.594;2022-10-26T05:04:16;10.10;24.10
51595;DHT22;37677;53.254;6.594;2022-10-26T05:06:42;10.10;24.50
51595;DHT22;37677;53.254;6.594;2022-10-26T05:09:08;10.00;24.70
51595;DHT22;37677;53.254;6.594;2022-10-26T05:11:33;10.10;25.50
51595;DHT22;37677;53.254;6.594;2022-10-26T05:13:59;10.20;25.20
51595;DHT22;37677;53.254;6.594;2022-10-26T05:16:24;10.20;25.50
51595;DHT22;37677;53.254;6.594;2022-10-26T05:18:50;10.10;25.40
51595;DHT22;37677;53.254;6.594;2022-10-26T05:21:16;10.20;25.60
51595;DHT22;37677;53.254;6.594;2022-10-26T05:23:48;11.60;26.00
51595;DHT22;37677;53.254;6.594;2022-10-26T05:26:15;11.00;25.80
51595;DHT22;37677;53.254;6.594;2022-10-26T05:28:41;10.30;25.40
51595;DHT22;37677;53.254;6.594;2022-10-26T05:31:07;12.30;26.10
51595;DHT22;37677;53.254;6.594;2022-10-26T05:33:32;10.70;25.20
51595;DHT22;37677;53.254;6.594;2022-10-26T05:35:58;10.30;25.50
51595;DHT22;37677;53.254;6.594;2022-10-26T05:38:25;10.40;24.90
51595;DHT22;37677;53.254;6.594;2022-10-26T05:40:53;10.40;24.70
51595;DHT22;37677;53.254;6.594;2022-10-26T05:43:20;10.40;24.40
51595;DHT22;37677;53.254;6.594;2022-10-26T05:45:46;11.90;24.70
51595;DHT22;37677;53.254;6.594;2022-10-26T05:48:12;10.80;24.40
51595;DHT22;37677;53.254;6.594;2022-10-26T05:50:37;10.40;24.00
51595;DHT22;37677;53.254;6.594;2022-10-26T05:53:03;11.60;24.40
51595;DHT22;37677;53.254;6.594;2022-10-26T05:55:29;10.40;23.90
51595;DHT22;37677;53.254;6.594;2022-10-26T05:57:55;10.40;24.20
51595;DHT22;37677;53.254;6.594;2022-10-26T06:00:23;10.40;24.10
51595;DHT22;37677;53.254;6.594;2022-10-26T06:02:56;10.40;23.90
51595;DHT22;37677;53.254;6.594;2022-10-26T06:05:31;10.50;23.80
51595;DHT22;37677;53.254;6.594;2022-10-26T06:07:58;10.50;23.80
51595;DHT22;37677;53.254;6.594;2022-10-26T06:10:24;10.50;24.60
51595;DHT22;37677;53.254;6.594;2022-10-26T06:12:50;10.50;24.40
51595;DHT22;37677;53.254;6.594;2022-10-26T06:15:20;10.50;24.30
51595;DHT22;37677;53.254;6.594;2022-10-26T06:23:14;10.60;23.50
51595;DHT22;37677;53.254;6.594;2022-10-26T06:28:49;10.60;23.50
51595;DHT22;37677;53.254;6.594;2022-10-26T06:31:17;10.60;23.10
51595;DHT22;37677;53.254;6.594;2022-10-26T06:33:42;10.70;23.10
51595;DHT22;37677;53.254;6.594;2022-10-26T06:36:22;10.70;22.90
51595;DHT22;37677;53.254;6.594;2022-10-26T06:39:04;10.70;22.60
51595;DHT22;37677;53.254;6.594;2022-10-26T06:41:32;10.80;22.30
51595;DHT22;37677;53.254;6.594;2022-10-26T06:43:58;10.90;22.10
51595;DHT22;37677;53.254;6.594;2022-10-26T06:46:35;10.80;22.00
51595;DHT22;37677;53.254;6.594;2022-10-26T06:51:50;10.80;21.30
51595;DHT22;37677;53.254;6.594;2022-10-26T06:54:46;12.50;21.60
51595;DHT22;37677;53.254;6.594;2022-10-26T06:57:23;10.90;20.80
51595;DHT22;37677;53.254;6.594;2022-10-26T06:59:55;10.90;21.00
51595;DHT22;37677;53.254;6.594;2022-10-26T07:02:22;10.90;20.80
51595;DHT22;37677;53.254;6.594;2022-10-26T07:04:48;11.00;21.00
51595;DHT22;37677;53.254;6.594;2022-10-26T07:07:17;11.10;20.90
51595;DHT22;37677;53.254;6.594;2022-10-26T07:09:43;11.10;20.70
51595;DHT22;37677;53.254;6.594;2022-10-26T07:12:08;11.10;20.00
51595;DHT22;37677;53.254;6.594;2022-10-26T07:14:34;12.80;20.10
51595;DHT22;37677;53.254;6.594;2022-10-26T07:17:00;11.30;19.90
51595;DHT22;37677;53.254;6.594;2022-10-26T07:19:39;11.40;20.50
51595;DHT22;37677;53.254;6.594;2022-10-26T07:22:05;11.40;19.50
51595;DHT22;37677;53.254;6.594;2022-10-26T07:24:31;11.40;17.50
51595;DHT22;37677;53.254;6.594;2022-10-26T07:26:58;11.50;15.70
51595;DHT22;37677;53.254;6.594;2022-10-26T07:29:25;11.40;14.90
51595;DHT22;37677;53.254;6.594;2022-10-26T07:31:52;11.40;14.10
51595;DHT22;37677;53.254;6.594;2022-10-26T07:34:17;11.50;12.60
51595;DHT22;37677;53.254;6.594;2022-10-26T07:36:43;11.50;12.50
51595;DHT22;37677;53.254;6.594;2022-10-26T07:39:09;11.60;12.00
51595;DHT22;37677;53.254;6.594;2022-10-26T07:41:35;11.60;10.00
51595;DHT22;37677;53.254;6.594;2022-10-26T07:44:01;11.60;8.10
51595;DHT22;37677;53.254;6.594;2022-10-26T07:46:27;11.70;8.10
51595;DHT22;37677;53.254;6.594;2022-10-26T07:48:53;11.70;7.30
51595;DHT22;37677;53.254;6.594;2022-10-26T07:51:18;11.70;4.80
51595;DHT22;37677;53.254;6.594;2022-10-26T07:53:45;11.80;4.70
51595;DHT22;37677;53.254;6.594;2022-10-26T07:56:11;12.10;4.60
51595;DHT22;37677;53.254;6.594;2022-10-26T07:58:37;11.80;2.20
51595;DHT22;37677;53.254;6.594;2022-10-26T08:01:07;11.80;1.00
51595;DHT22;37677;53.254;6.594;2022-10-26T08:03:33;11.80;1.00
51595;DHT22;37677;53.254;6.594;2022-10-26T08:05:59;12.10;1.00
51595;DHT22;37677;53.254;6.594;2022-10-26T08:08:25;12.30;1.00
51595;DHT22;37677;53.254;6.594;2022-10-26T08:10:51;12.60;1.00
51595;DHT22;37677;53.254;6.594;2022-10-26T08:13:17;12.30;1.00
51595;DHT22;37677;53.254;6.594;2022-10-26T08:15:43;12.50;1.00
51595;DHT22;37677;53.254;6.594;2022-10-26T08:18:09;12.40;1.00
51595;DHT22;37677;53.254;6.594;2022-10-26T08:20:35;12.40;1.00
51595;DHT22;37677;53.254;6.594;2022-10-26T08:23:00;12.40;1.00
51595;DHT22;37677;53.254;6.594;2022-10-26T08:25:28;12.80;1.00
51595;DHT22;37677;53.254;6.594;2022-10-26T08:27:54;12.50;1.00
51595;DHT22;37677;53.254;6.594;2022-10-26T08:30:20;12.60;1.00
51595;DHT22;37677;53.254;6.594;2022-10-26T08:32:45;12.70;1.00
51595;DHT22;37677;53.254;6.594;2022-10-26T08:35:11;13.40;1.00
51595;DHT22;37677;53.254;6.594;2022-10-26T08:37:37;12.90;1.00
51595;DHT22;37677;53.254;6.594;2022-10-26T08:40:03;12.90;1.00
51595;DHT22;37677;53.254;6.594;2022-10-26T08:42:35;13.10;1.00
51595;DHT22;37677;53.254;6.594;2022-10-26T08:45:31;13.20;1.00
51595;DHT22;37677;53.254;6.594;2022-10-26T08:47:59;13.50;1.00
51595;DHT22;37677;53.254;6.594;2022-10-26T08:50:35;14.10;1.00
51595;DHT22;37677;53.254;6.594;2022-10-26T08:53:14;14.50;1.00
51595;DHT22;37677;53.254;6.594;2022-10-26T08:58:55;15.80;1.00
51595;DHT22;37677;53.254;6.594;2022-10-26T09:01:21;17.20;1.00
51595;DHT22;37677;53.254;6.594;2022-10-26T09:03:46;18.20;99.90
51595;DHT22;37677;53.254;6.594;2022-10-26T09:14:44;20.10;1.00
51595;DHT22;37677;53.254;6.594;2022-10-26T09:25:02;20.90;99.90
51595;DHT22;37677;53.254;6.594;2022-10-26T09:27:36;20.70;1.00
51595;DHT22;37677;53.254;6.594;2022-10-26T09:30:14;20.50;91.30
51595;DHT22;37677;53.254;6.594;2022-10-26T09:32:48;20.50;1.00
51595;DHT22;37677;53.254;6.594;2022-10-26T09:35:18;20.90;26.20
51595;DHT22;37677;53.254;6.594;2022-10-26T09:37:54;21.70;1.00
51595;DHT22;37677;53.254;6.594;2022-10-26T09:40:33;21.90;99.90
51595;DHT22;37677;53.254;6.594;2022-10-26T09:43:09;21.80;1.00
51595;DHT22;37677;53.254;6.594;2022-10-26T09:45:38;22.20;1.00
51595;DHT22;37677;53.254;6.594;2022-10-26T09:50:54;22.40;1.00
51595;DHT22;37677;53.254;6.594;2022-10-26T09:53:22;22.90;99.90
51595;DHT22;37677;53.254;6.594;2022-10-26T09:58:24;23.10;1.00
51595;DHT22;37677;53.254;6.594;2022-10-26T10:00:53;23.30;99.90
51595;DHT22;37677;53.254;6.594;2022-10-26T10:03:24;23.30;99.90
51595;DHT22;37677;53.254;6.594;2022-10-26T10:05:52;23.50;99.90
51595;DHT22;37677;53.254;6.594;2022-10-26T10:08:25;23.80;99.90
51595;DHT22;37677;53.254;6.594;2022-10-26T10:13:30;23.80;1.00
51595;DHT22;37677;53.254;6.594;2022-10-26T10:18:30;24.10;1.00
51595;DHT22;37677;53.254;6.594;2022-10-26T10:20:58;24.00;99.90
51595;DHT22;37677;53.254;6.594;2022-10-26T10:23:30;23.80;99.90
51595;DHT22;37677;53.254;6.594;2022-10-26T10:26:01;23.20;99.90
51595;DHT22;37677;53.254;6.594;2022-10-26T10:28:27;23.50;99.90
51595;DHT22;37677;53.254;6.594;2022-10-26T10:30:59;23.70;99.90
51595;DHT22;37677;53.254;6.594;2022-10-26T10:33:54;23.80;99.90
51595;DHT22;37677;53.254;6.594;2022-10-26T10:36:25;23.30;99.90
51595;DHT22;37677;53.254;6.594;2022-10-26T10:38:53;23.00;99.90
51595;DHT22;37677;53.254;6.594;2022-10-26T10:41:32;22.00;99.90
51595;DHT22;37677;53.254;6.594;2022-10-26T10:44:24;21.50;99.90
51595;DHT22;37677;53.254;6.594;2022-10-26T10:47:20;20.60;99.90
51595;DHT22;37677;53.254;6.594;2022-10-26T10:49:52;20.00;1.00
51595;DHT22;37677;53.254;6.594;2022-10-26T10:52:24;19.50;1.00
51595;DHT22;37677;53.254;6.594;2022-10-26T10:55:00;19.10;99.90
51595;DHT22;37677;53.254;6.594;2022-10-26T10:57:35;19.00;99.90
51595;DHT22;37677;53.254;6.594;2022-10-26T11:00:07;18.70;99.90
51595;DHT22;37677;53.254;6.594;2022-10-26T11:07:54;18.30;57.90
51595;DHT22;37677;53.254;6.594;2022-10-26T11:10:25;18.20;99.90
51595;DHT22;37677;53.254;6.594;2022-10-26T11:12:57;18.20;99.90
51595;DHT22;37677;53.254;6.594;2022-10-26T11:15:29;18.20;99.90
51595;DHT22;37677;53.254;6.594;2022-10-26T11:18:28;18.20;99.90
51595;DHT22;37677;53.254;6.594;2022-10-26T11:21:35;18.30;99.90
51595;DHT22;37677;53.254;6.594;2022-10-26T11:27:16;18.50;1.00
51595;DHT22;37677;53.254;6.594;2022-10-26T11:32:36;19.00;1.00
51595;DHT22;37677;53.254;6.594;2022-10-26T11:35:31;19.20;1.00
51595;DHT22;37677;53.254;6.594;2022-10-26T11:43:47;19.20;1.00
51595;DHT22;37677;53.254;6.594;2022-10-26T11:46:32;19.20;1.00
51595;DHT22;37677;53.254;6.594;2022-10-26T11:52:00;19.30;99.90
51595;DHT22;37677;53.254;6.594;2022-10-26T11:54:54;19.20;99.90
51595;DHT22;37677;53.254;6.594;2022-10-26T11:57:24;19.20;1.00
51595;DHT22;37677;53.254;6.594;2022-10-26T12:00:17;19.20;1.00
51595;DHT22;37677;53.254;6.594;2022-10-26T12:03:08;19.10;1.00
51595;DHT22;37677;53.254;6.594;2022-10-26T12:13:45;19.00;88.20
51595;DHT22;37677;53.254;6.594;2022-10-26T12:18:50;19.00;99.90
51595;DHT22;37677;53.254;6.594;2022-10-26T12:21:18;19.00;1.00
51595;DHT22;37677;53.254;6.594;2022-10-26T12:23:57;19.00;99.90
51595;DHT22;37677;53.254;6.594;2022-10-26T12:29:12;18.90;1.00
51595;DHT22;37677;53.254;6.594;2022-10-26T12:39:38;18.80;99.90
51595;DHT22;37677;53.254;6.594;2022-10-26T12:44:39;18.80;99.90
51595;DHT22;37677;53.254;6.594;2022-10-26T12:47:06;18.70;99.90
51595;DHT22;37677;53.254;6.594;2022-10-26T12:50:00;18.70;1.00
51595;DHT22;37677;53.254;6.594;2022-10-26T12:52:56;18.60;95.50
51595;DHT22;37677;53.254;6.594;2022-10-26T12:58:54;18.50;99.90
51595;DHT22;37677;53.254;6.594;2022-10-26T13:01:44;18.40;99.90
51595;DHT22;37677;53.254;6.594;2022-10-26T13:04:25;18.40;1.00
51595;DHT22;37677;53.254;6.594;2022-10-26T13:09:31;18.40;99.90
51595;DHT22;37677;53.254;6.594;2022-10-26T13:12:01;18.40;99.90
51595;DHT22;37677;53.254;6.594;2022-10-26T13:14:34;18.40;99.90
51595;DHT22;37677;53.254;6.594;2022-10-26T13:17:05;18.30;1.00
51595;DHT22;37677;53.254;6.594;2022-10-26T13:19:44;18.30;60.90
51595;DHT22;37677;53.254;6.594;2022-10-26T13:22:30;18.30;99.90
51595;DHT22;37677;53.254;6.594;2022-10-26T13:24:59;18.20;99.90
51595;DHT22;37677;53.254;6.594;2022-10-26T13:32:34;18.20;22.40
51595;DHT22;37677;53.254;6.594;2022-10-26T13:35:02;18.10;99.90
51595;DHT22;37677;53.254;6.594;2022-10-26T13:37:31;18.10;99.90
51595;DHT22;37677;53.254;6.594;2022-10-26T13:39:58;18.10;99.90
51595;DHT22;37677;53.254;6.594;2022-10-26T13:42:34;18.10;99.90
51595;DHT22;37677;53.254;6.594;2022-10-26T13:45:08;18.20;1.00
51595;DHT22;37677;53.254;6.594;2022-10-26T13:48:04;18.20;1.00
51595;DHT22;37677;53.254;6.594;2022-10-26T13:55:53;18.10;12.50
51595;DHT22;37677;53.254;6.594;2022-10-26T14:03:29;18.10;57.70
51595;DHT22;37677;53.254;6.594;2022-10-26T14:05:55;18.10;44.40
51595;DHT22;37677;53.254;6.594;2022-10-26T14:08:22;18.00;60.80
51595;DHT22;37677;53.254;6.594;2022-10-26T14:10:53;18.00;97.50
51595;DHT22;37677;53.254;6.594;2022-10-26T14:13:23;18.00;99.90
51595;DHT22;37677;53.254;6.594;2022-10-26T14:15:51;17.70;99.90
51595;DHT22;37677;53.254;6.594;2022-10-26T14:18:24;17.90;99.90
51595;DHT22;37677;53.254;6.594;2022-10-26T14:21:05;17.90;99.90
51595;DHT22;37677;53.254;6.594;2022-10-26T14:23:56;17.90;99.90
51595;DHT22;37677;53.254;6.594;2022-10-26T14:28:57;17.80;99.90
51595;DHT22;37677;53.254;6.594;2022-10-26T14:31:25;17.80;99.90
51595;DHT22;37677;53.254;6.594;2022-10-26T14:33:52;17.80;99.90
51595;DHT22;37677;53.254;6.594;2022-10-26T14:36:21;17.80;99.90
51595;DHT22;37677;53.254;6.594;2022-10-26T14:38:50;17.80;99.90
51595;DHT22;37677;53.254;6.594;2022-10-26T14:41:18;17.80;99.90
51595;DHT22;37677;53.254;6.594;2022-10-26T14:43:45;17.80;99.90
51595;DHT22;37677;53.254;6.594;2022-10-26T14:46:14;17.70;99.90
51595;DHT22;37677;53.254;6.594;2022-10-26T14:48:50;17.70;99.90
51595;DHT22;37677;53.254;6.594;2022-10-26T14:51:19;17.60;99.90
51595;DHT22;37677;53.254;6.594;2022-10-26T14:53:53;17.50;99.90
51595;DHT22;37677;53.254;6.594;2022-10-26T14:56:29;17.50;99.90
51595;DHT22;37677;53.254;6.594;2022-10-26T14:58:56;17.40;99.90
51595;DHT22;37677;53.254;6.594;2022-10-26T15:01:23;17.40;99.90
51595;DHT22;37677;53.254;6.594;2022-10-26T15:04:20;17.30;99.90
51595;DHT22;37677;53.254;6.594;2022-10-26T15:06:49;17.30;99.90
51595;DHT22;37677;53.254;6.594;2022-10-26T15:12:06;15.40;1.00
51595;DHT22;37677;53.254;6.594;2022-10-26T15:14:42;17.20;1.00
51595;DHT22;37677;53.254;6.594;2022-10-26T15:17:21;17.20;1.00
51595;DHT22;37677;53.254;6.594;2022-10-26T15:19:48;17.10;1.00
51595;DHT22;37677;53.254;6.594;2022-10-26T15:22:23;17.10;1.00
51595;DHT22;37677;53.254;6.594;2022-10-26T15:24:52;17.10;1.00
51595;DHT22;37677;53.254;6.594;2022-10-26T15:27:18;17.10;1.00
51595;DHT22;37677;53.254;6.594;2022-10-26T15:29:46;17.00;1.00
51595;DHT22;37677;53.254;6.594;2022-10-26T15:35:14;17.10;1.00
51595;DHT22;37677;53.254;6.594;2022-10-26T15:37:46;17.10;1.00
51595;DHT22;37677;53.254;6.594;2022-10-26T15:40:12;17.10;1.00
51595;DHT22;37677;53.254;6.594;2022-10-26T15:42:39;17.00;1.00
51595;DHT22;37677;53.254;6.594;2022-10-26T15:45:20;17.00;1.00
51595;DHT22;37677;53.254;6.594;2022-10-26T15:47:47;16.90;1.00
51595;DHT22;37677;53.254;6.594;2022-10-26T15:50:15;16.90;1.00
51595;DHT22;37677;53.254;6.594;2022-10-26T15:52:42;16.90;1.00
51595;DHT22;37677;53.254;6.594;2022-10-26T15:55:08;16.80;1.00
51595;DHT22;37677;53.254;6.594;2022-10-26T15:57:35;16.80;1.00
51595;DHT22;37677;53.254;6.594;2022-10-26T16:00:04;16.80;1.00
51595;DHT22;37677;53.254;6.594;2022-10-26T16:02:30;16.80;1.00
51595;DHT22;37677;53.254;6.594;2022-10-26T16:04:57;16.90;1.00
51595;DHT22;37677;53.254;6.594;2022-10-26T16:07:25;16.60;1.00
51595;DHT22;37677;53.254;6.594;2022-10-26T16:09:51;16.60;1.00
51595;DHT22;37677;53.254;6.594;2022-10-26T16:12:17;16.60;1.00
51595;DHT22;37677;53.254;6.594;2022-10-26T16:14:43;16.50;1.00
51595;DHT22;37677;53.254;6.594;2022-10-26T16:17:08;16.50;1.00
51595;DHT22;37677;53.254;6.594;2022-10-26T16:19:34;16.50;1.00
51595;DHT22;37677;53.254;6.594;2022-10-26T16:22:00;16.50;1.00
51595;DHT22;37677;53.254;6.594;2022-10-26T16:24:28;16.50;1.00
51595;DHT22;37677;53.254;6.594;2022-10-26T16:26:55;16.50;1.00
51595;DHT22;37677;53.254;6.594;2022-10-26T16:29:21;16.50;1.00
51595;DHT22;37677;53.254;6.594;2022-10-26T16:31:47;16.50;1.00
51595;DHT22;37677;53.254;6.594;2022-10-26T16:34:13;16.40;1.00
51595;DHT22;37677;53.254;6.594;2022-10-26T16:36:39;16.40;1.00
51595;DHT22;37677;53.254;6.594;2022-10-26T16:39:05;16.40;1.00
51595;DHT22;37677;53.254;6.594;2022-10-26T16:41:31;16.40;1.00
51595;DHT22;37677;53.254;6.594;2022-10-26T16:43:57;16.40;1.00
51595;DHT22;37677;53.254;6.594;2022-10-26T16:46:24;16.60;1.00
51595;DHT22;37677;53.254;6.594;2022-10-26T16:48:50;16.40;1.00
51595;DHT22;37677;53.254;6.594;2022-10-26T16:51:19;16.20;1.00
51595;DHT22;37677;53.254;6.594;2022-10-26T16:53:52;16.40;1.00
51595;DHT22;37677;53.254;6.594;2022-10-26T16:56:22;16.40;1.00
51595;DHT22;37677;53.254;6.594;2022-10-26T16:58:48;16.40;1.00
51595;DHT22;37677;53.254;6.594;2022-10-26T17:01:15;16.40;1.00
51595;DHT22;37677;53.254;6.594;2022-10-26T17:03:48;16.30;1.00
51595;DHT22;37677;53.254;6.594;2022-10-26T17:06:15;16.40;1.00
51595;DHT22;37677;53.254;6.594;2022-10-26T17:08:42;16.40;1.00
51595;DHT22;37677;53.254;6.594;2022-10-26T17:11:09;16.30;1.00
51595;DHT22;37677;53.254;6.594;2022-10-26T17:13:36;16.30;1.00
51595;DHT22;37677;53.254;6.594;2022-10-26T17:16:07;16.30;1.00
51595;DHT22;37677;53.254;6.594;2022-10-26T17:18:34;16.30;1.00
51595;DHT22;37677;53.254;6.594;2022-10-26T17:20:59;16.20;1.00
51595;DHT22;37677;53.254;6.594;2022-10-26T17:23:25;16.20;1.00
51595;DHT22;37677;53.254;6.594;2022-10-26T17:25:51;16.10;1.00
51595;DHT22;37677;53.254;6.594;2022-10-26T17:28:17;16.10;1.00
51595;DHT22;37677;53.254;6.594;2022-10-26T17:30:43;16.00;1.00
51595;DHT22;37677;53.254;6.594;2022-10-26T17:33:09;16.00;1.00
51595;DHT22;37677;53.254;6.594;2022-10-26T17:35:36;16.10;1.00
51595;DHT22;37677;53.254;6.594;2022-10-26T17:38:02;16.00;1.00
51595;DHT22;37677;53.254;6.594;2022-10-26T17:40:28;16.00;1.00
51595;DHT22;37677;53.254;6.594;2022-10-26T17:42:53;16.00;1.00
51595;DHT22;37677;53.254;6.594;2022-10-26T17:45:19;16.00;1.00
51595;DHT22;37677;53.254;6.594;2022-10-26T17:47:45;15.90;1.00
51595;DHT22;37677;53.254;6.594;2022-10-26T17:50:11;16.10;1.00
51595;DHT22;37677;53.254;6.594;2022-10-26T17:52:36;15.90;1.00
51595;DHT22;37677;53.254;6.594;2022-10-26T17:55:02;15.90;1.00
51595;DHT22;37677;53.254;6.594;2022-10-26T17:57:28;15.90;1.00
51595;DHT22;37677;53.254;6.594;2022-10-26T17:59:54;15.90;1.00
51595;DHT22;37677;53.254;6.594;2022-10-26T18:02:19;15.80;1.00
51595;DHT22;37677;53.254;6.594;2022-10-26T18:04:45;15.80;1.00
51595;DHT22;37677;53.254;6.594;2022-10-26T18:09:37;15.70;1.00
51595;DHT22;37677;53.254;6.594;2022-10-26T18:12:03;15.70;1.00